createdAt,value
2019-05-11T00:00:41.463Z,81.70
2019-05-11T00:03:09.908Z,81.65
2019-05-11T00:05:38.491Z,81.60
2019-05-11T00:08:07.015Z,81.52
2019-05-11T00:10:35.687Z,81.45
2019-05-11T00:13:04.108Z,81.48
2019-05-11T00:15:32.560Z,81.62
2019-05-11T00:18:01.062Z,81.77
2019-05-11T00:20:29.568Z,81.83
2019-05-11T00:22:58.518Z,81.87
2019-05-11T00:25:26.940Z,81.88
2019-05-11T00:27:55.527Z,82.04
2019-05-11T00:30:24.192Z,82.15
2019-05-11T00:32:52.622Z,82.16
2019-05-11T00:35:21.049Z,82.25
2019-05-11T00:37:49.654Z,82.40
2019-05-11T00:40:18.544Z,82.66
2019-05-11T00:42:46.969Z,82.58
2019-05-11T00:45:15.708Z,82.59
2019-05-11T00:47:44.142Z,82.79
2019-05-11T00:50:14.238Z,82.90
2019-05-11T00:52:42.685Z,82.94
2019-05-11T00:55:11.192Z,82.93
2019-05-11T00:57:39.628Z,82.84
2019-05-11T01:00:08.908Z,82.76
2019-05-11T01:02:37.367Z,82.67
2019-05-11T01:05:07.849Z,82.64
2019-05-11T01:07:36.542Z,82.55
2019-05-11T01:10:06.894Z,82.52
2019-05-11T01:12:35.319Z,82.56
2019-05-11T01:15:04.347Z,82.68
2019-05-11T01:17:32.859Z,82.81
2019-05-11T01:20:01.308Z,82.84
2019-05-11T01:22:29.876Z,82.90
2019-05-11T01:24:58.309Z,82.93
2019-05-11T01:27:26.744Z,82.95
2019-05-11T01:29:55.730Z,82.88
2019-05-11T01:32:24.162Z,82.81
2019-05-11T01:34:52.586Z,82.73
2019-05-11T01:37:21.208Z,82.77
2019-05-11T01:39:49.632Z,82.91
2019-05-11T01:42:18.063Z,83.12
2019-05-11T01:44:46.638Z,83.20
2019-05-11T01:47:15.238Z,83.27
2019-05-11T01:49:43.663Z,83.27
2019-05-11T01:52:12.689Z,83.31
2019-05-11T01:54:41.127Z,83.29
2019-05-11T01:57:09.698Z,83.29
2019-05-11T01:59:38.135Z,83.25
2019-05-11T02:02:06.570Z,83.21
2019-05-11T02:04:34.993Z,83.29
2019-05-11T02:07:03.580Z,83.36
2019-05-11T02:09:32.058Z,83.43
2019-05-11T02:12:00.534Z,83.58
2019-05-11T02:14:29.022Z,83.67
2019-05-11T02:16:57.803Z,83.74
2019-05-11T02:19:26.237Z,83.69
2019-05-11T02:21:54.855Z,83.75
2019-05-11T02:24:23.647Z,83.84
2019-05-11T02:26:52.076Z,83.87
2019-05-11T02:29:21.139Z,83.81
2019-05-11T02:31:49.557Z,83.76
2019-05-11T02:34:17.982Z,83.69
2019-05-11T02:36:47.148Z,83.74
2019-05-11T02:39:15.659Z,83.76
2019-05-11T02:41:44.113Z,83.68
2019-05-11T02:44:12.870Z,83.66
2019-05-11T02:46:41.361Z,83.69
2019-05-11T02:49:09.775Z,83.74
2019-05-11T02:51:40.179Z,83.77
2019-05-11T02:54:10.656Z,83.89
2019-05-11T02:56:39.081Z,83.98
2019-05-11T02:59:07.525Z,84.05
2019-05-11T03:01:35.952Z,84.10
2019-05-11T03:04:04.389Z,84.15
2019-05-11T03:06:32.808Z,84.04
2019-05-11T03:09:01.617Z,84.14
2019-05-11T03:11:30.052Z,84.06
2019-05-11T03:13:58.563Z,84.04
2019-05-11T03:16:26.999Z,84.16
2019-05-11T03:18:55.417Z,84.18
2019-05-11T03:21:23.898Z,84.08
2019-05-11T03:23:52.690Z,83.99
2019-05-11T03:26:21.228Z,83.92
2019-05-11T03:28:50.001Z,83.84
2019-05-11T03:31:18.483Z,83.84
2019-05-11T03:33:47.015Z,83.92
2019-05-11T03:36:15.428Z,84.09
2019-05-11T03:38:43.848Z,84.15
2019-05-11T03:41:12.645Z,84.12
2019-05-11T03:43:41.546Z,84.09
2019-05-11T03:46:09.986Z,84.13
2019-05-11T03:48:38.406Z,84.30
2019-05-11T03:51:06.883Z,84.40
2019-05-11T03:53:35.313Z,84.43
2019-05-11T03:56:03.756Z,84.49
2019-05-11T03:58:32.327Z,84.52
2019-05-11T04:01:00.757Z,84.51
2019-05-11T04:03:29.428Z,84.50
2019-05-11T04:05:57.914Z,84.46
2019-05-11T04:08:26.335Z,84.38
2019-05-11T04:10:54.788Z,84.35
2019-05-11T04:13:23.304Z,84.36
2019-05-11T04:15:51.738Z,84.28
2019-05-11T04:18:20.161Z,84.24
2019-05-11T04:20:48.697Z,84.26
2019-05-11T04:23:17.120Z,84.33
2019-05-11T04:25:45.614Z,84.44
2019-05-11T04:28:14.522Z,84.37
2019-05-11T04:30:42.984Z,84.25
2019-05-11T04:33:11.413Z,84.22
2019-05-11T04:35:39.871Z,84.19
2019-05-11T04:38:08.492Z,84.27
2019-05-11T04:40:36.930Z,84.19
2019-05-11T04:43:05.395Z,84.11
2019-05-11T04:45:33.813Z,84.03
2019-05-11T04:48:02.249Z,83.94
2019-05-11T04:50:30.792Z,83.75
2019-05-11T04:52:59.210Z,83.64
2019-05-11T04:55:27.666Z,83.60
2019-05-11T04:57:56.271Z,83.57
2019-05-11T05:00:24.976Z,83.40
2019-05-11T05:02:53.414Z,83.43
2019-05-11T05:05:22.130Z,83.35
2019-05-11T05:07:50.837Z,83.26
2019-05-11T05:10:20.544Z,83.18
2019-05-11T05:12:51.519Z,83.14
2019-05-11T05:15:19.904Z,83.10
2019-05-11T05:17:48.317Z,83.27
2019-05-11T05:20:17.149Z,83.17
2019-05-11T05:22:45.833Z,83.04
2019-05-11T05:25:14.255Z,82.81
2019-05-11T05:27:42.846Z,82.72
2019-05-11T05:30:12.091Z,82.58
2019-05-11T05:32:40.516Z,82.60
2019-05-11T05:35:09.308Z,82.38
2019-05-11T05:37:37.728Z,82.14
2019-05-11T05:40:06.886Z,81.60
2019-05-11T05:42:36.992Z,81.30
2019-05-11T05:45:07.467Z,81.00
2019-05-11T05:47:35.892Z,80.71
2019-05-11T05:50:06.344Z,80.34
2019-05-11T05:52:34.765Z,80.01
2019-05-11T05:55:04.074Z,79.70
2019-05-11T05:57:32.850Z,79.03
2019-05-11T06:00:01.355Z,78.59
2019-05-11T06:02:29.754Z,78.17
2019-05-11T06:04:58.705Z,77.71
2019-05-11T06:07:27.176Z,77.28
2019-05-11T06:09:55.585Z,76.94
2019-05-11T06:12:24.130Z,76.36
2019-05-11T06:14:52.552Z,75.92
2019-05-11T06:17:21.054Z,75.58
2019-05-11T06:19:49.606Z,74.05
2019-05-11T06:22:18.028Z,73.49
2019-05-11T06:24:46.471Z,73.41
2019-05-11T06:27:14.932Z,72.76
2019-05-11T06:29:46.431Z,72.32
2019-05-11T06:32:14.892Z,72.13
2019-05-11T06:34:43.431Z,71.90
2019-05-11T06:37:12.238Z,71.95
2019-05-11T06:39:40.798Z,71.93
2019-05-11T06:42:09.299Z,71.96
2019-05-11T06:44:37.722Z,71.77
2019-05-11T06:47:06.161Z,71.45
2019-05-11T06:49:34.604Z,70.71
2019-05-11T06:52:03.040Z,70.09
2019-05-11T06:54:31.464Z,69.62
2019-05-11T06:57:00.100Z,69.47
2019-05-11T06:59:28.502Z,69.21
2019-05-11T07:01:57.010Z,68.43
2019-05-11T07:04:25.536Z,67.63
2019-05-11T07:06:54.275Z,66.17
2019-05-11T07:09:22.699Z,66.01
2019-05-11T07:11:51.414Z,65.81
2019-05-11T07:14:21.453Z,64.98
2019-05-11T07:16:50.120Z,63.70
2019-05-11T07:19:18.658Z,63.86
2019-05-11T07:21:47.104Z,62.95
2019-05-11T07:24:15.694Z,61.10
2019-05-11T07:26:44.325Z,61.37
2019-05-11T07:29:12.954Z,61.38
2019-05-11T07:31:41.398Z,60.72
2019-05-11T07:34:09.849Z,60.59
2019-05-11T07:36:38.911Z,60.14
2019-05-11T07:39:09.618Z,60.10
2019-05-11T07:41:38.953Z,60.13
2019-05-11T07:44:09.804Z,59.02
2019-05-11T07:46:37.775Z,58.62
2019-05-11T07:49:08.744Z,58.78
2019-05-11T07:51:38.726Z,57.76
2019-05-11T07:54:08.410Z,57.73
2019-05-11T07:56:39.118Z,57.46
2019-05-11T07:59:07.990Z,57.34
2019-05-11T08:01:38.716Z,57.19
2019-05-11T08:04:07.787Z,56.97
2019-05-11T08:06:38.904Z,56.28
2019-05-11T08:09:08.343Z,55.29
2019-05-11T08:11:38.886Z,55.16
2019-05-11T08:14:07.843Z,54.64
2019-05-11T08:16:38.677Z,54.25
2019-05-11T08:19:10.038Z,53.64
2019-05-11T08:21:38.828Z,54.08
2019-05-11T08:24:09.130Z,54.40
2019-05-11T08:26:38.590Z,54.18
2019-05-11T08:29:08.101Z,54.11
2019-05-11T08:31:38.423Z,54.05
2019-05-11T08:34:08.836Z,53.74
2019-05-11T08:36:37.945Z,53.46
2019-05-11T08:39:07.943Z,52.69
2019-05-11T08:41:38.458Z,52.57
2019-05-11T08:44:08.920Z,52.79
2019-05-11T08:46:38.595Z,52.69
2019-05-11T08:49:08.690Z,53.00
2019-05-11T08:51:38.601Z,52.69
2019-05-11T08:54:08.999Z,52.65
2019-05-11T08:56:38.244Z,52.04
2019-05-11T08:59:07.995Z,52.01
2019-05-11T09:01:39.343Z,51.89
2019-05-11T09:04:08.952Z,51.35
2019-05-11T09:06:37.820Z,51.10
2019-05-11T09:09:09.006Z,50.77
2019-05-11T09:11:38.907Z,50.89
2019-05-11T09:14:08.400Z,51.34
2019-05-11T09:16:38.351Z,51.11
2019-05-11T09:19:08.781Z,50.96
2019-05-11T09:21:38.267Z,50.19
2019-05-11T09:24:08.491Z,49.71
2019-05-11T09:26:38.935Z,49.22
2019-05-11T09:29:08.661Z,48.86
2019-05-11T09:31:38.381Z,48.77
2019-05-11T09:34:08.938Z,48.05
2019-05-11T09:36:38.925Z,48.44
2019-05-11T09:39:08.651Z,48.10
2019-05-11T09:41:38.299Z,47.96
2019-05-11T09:44:08.910Z,47.31
2019-05-11T09:46:38.473Z,46.25
2019-05-11T09:49:08.021Z,45.90
2019-05-11T09:51:38.075Z,46.34
2019-05-11T09:54:07.900Z,46.25
2019-05-11T09:56:38.149Z,46.43
2019-05-11T09:59:08.869Z,46.96
2019-05-11T10:01:37.863Z,46.79
2019-05-11T10:04:09.022Z,46.41
2019-05-11T10:06:39.292Z,46.19
2019-05-11T10:09:08.366Z,45.91
2019-05-11T10:11:39.808Z,45.56
2019-05-11T10:14:08.481Z,45.33
2019-05-11T10:16:38.603Z,44.83
2019-05-11T10:19:08.536Z,44.64
2019-05-11T10:21:38.442Z,45.29
2019-05-11T10:24:08.520Z,45.42
2019-05-11T10:26:38.446Z,45.49
2019-05-11T10:29:07.881Z,45.56
2019-05-11T10:31:38.563Z,45.24
2019-05-11T10:34:08.638Z,44.78
2019-05-11T10:36:38.553Z,44.70
2019-05-11T10:39:08.598Z,45.32
2019-05-11T10:41:38.739Z,45.56
2019-05-11T10:44:08.210Z,44.96
2019-05-11T10:46:38.071Z,44.74
2019-05-11T10:49:08.253Z,45.13
2019-05-11T10:51:38.302Z,44.61
2019-05-11T10:54:08.762Z,43.35
2019-05-11T10:56:38.831Z,43.20
2019-05-11T10:59:08.987Z,43.23
2019-05-11T11:01:38.189Z,43.18
2019-05-11T11:04:07.796Z,43.04
2019-05-11T11:06:38.493Z,43.16
2019-05-11T11:09:08.985Z,43.19
2019-05-11T11:11:38.210Z,43.08
2019-05-11T11:14:08.731Z,41.28
2019-05-11T11:16:42.452Z,41.99
2019-05-11T11:19:07.698Z,42.21
2019-05-11T11:21:38.348Z,42.68
2019-05-11T11:24:07.638Z,42.61
2019-05-11T11:26:37.999Z,41.66
2019-05-11T11:29:08.611Z,40.66
2019-05-11T11:31:37.974Z,40.51
2019-05-11T11:34:08.299Z,39.94
2019-05-11T11:36:37.644Z,40.08
2019-05-11T11:39:08.374Z,40.82
2019-05-11T11:41:37.879Z,41.27
2019-05-11T11:44:07.849Z,41.33
2019-05-11T11:46:51.390Z,40.87
2019-05-11T11:49:09.064Z,40.52
2019-05-11T11:51:37.926Z,40.22
2019-05-11T11:54:08.540Z,40.43
2019-05-11T11:56:38.031Z,40.02
2019-05-11T11:59:08.494Z,39.93
2019-05-11T12:01:38.513Z,40.35
2019-05-11T12:04:08.294Z,40.69
2019-05-11T12:06:38.574Z,38.81
2019-05-11T12:09:08.955Z,39.13
2019-05-11T12:11:38.194Z,38.78
2019-05-11T12:14:08.727Z,38.91
2019-05-11T12:16:38.874Z,38.74
2019-05-11T12:19:08.661Z,38.40
2019-05-11T12:21:37.957Z,39.72
2019-05-11T12:24:08.115Z,38.80
2019-05-11T12:26:38.859Z,38.47
2019-05-11T12:29:09.515Z,38.63
2019-05-11T12:31:38.098Z,38.08
2019-05-11T12:34:08.691Z,38.14
2019-05-11T12:36:38.726Z,36.92
2019-05-11T12:39:08.491Z,37.33
2019-05-11T12:41:38.718Z,36.47
2019-05-11T12:44:08.267Z,36.61
2019-05-11T12:46:39.375Z,37.12
2019-05-11T12:49:08.044Z,37.37
2019-05-11T12:51:38.247Z,37.11
2019-05-11T12:54:08.290Z,36.58
2019-05-11T12:56:38.282Z,36.70
2019-05-11T12:59:08.283Z,36.14
2019-05-11T13:01:38.155Z,34.24
2019-05-11T13:04:08.932Z,34.87
2019-05-11T13:06:38.522Z,35.37
2019-05-11T13:09:08.119Z,35.13
2019-05-11T13:11:37.971Z,35.52
2019-05-11T13:14:07.998Z,35.78
2019-05-11T13:16:37.816Z,35.76
2019-05-11T13:19:08.345Z,35.51
2019-05-11T13:21:38.286Z,34.90
2019-05-11T13:24:08.596Z,34.71
2019-05-11T13:26:37.989Z,34.54
2019-05-11T13:29:07.768Z,33.94
2019-05-11T13:31:38.391Z,33.63
2019-05-11T13:34:08.394Z,32.37
2019-05-11T13:36:38.208Z,32.28
2019-05-11T13:39:08.898Z,32.03
2019-05-11T13:41:38.335Z,32.42
2019-05-11T13:44:08.045Z,32.25
2019-05-11T13:46:38.700Z,32.09
2019-05-11T13:49:08.579Z,31.49
2019-05-11T13:51:38.824Z,29.90
2019-05-11T13:54:08.030Z,30.01
2019-05-11T13:56:37.982Z,29.76
2019-05-11T13:59:10.749Z,30.23
2019-05-11T14:01:39.489Z,28.52
2019-05-11T14:04:08.710Z,29.33
2019-05-11T14:06:38.255Z,29.44
2019-05-11T14:09:08.435Z,29.44
2019-05-11T14:11:39.066Z,29.74
2019-05-11T14:14:07.883Z,29.85
2019-05-11T14:16:37.862Z,29.24
2019-05-11T14:19:08.671Z,29.58
2019-05-11T14:21:38.533Z,29.57
2019-05-11T14:24:07.961Z,28.67
2019-05-11T14:26:38.628Z,28.32
2019-05-11T14:29:08.470Z,28.09
2019-05-11T14:31:38.704Z,27.47
2019-05-11T14:34:08.882Z,26.80
2019-05-11T14:36:38.723Z,27.24
2019-05-11T14:39:08.360Z,27.10
2019-05-11T14:41:38.084Z,27.35
2019-05-11T14:44:08.939Z,25.96
2019-05-11T14:46:38.426Z,26.73
2019-05-11T14:49:07.901Z,26.44
2019-05-11T14:51:38.863Z,27.02
2019-05-11T14:54:08.154Z,27.12
2019-05-11T14:56:41.525Z,26.43
2019-05-11T14:59:10.098Z,26.67
2019-05-11T15:01:38.543Z,26.19
2019-05-11T15:04:09.118Z,26.73
2019-05-11T15:06:38.613Z,26.91
2019-05-11T15:09:08.556Z,25.89
2019-05-11T15:11:38.890Z,26.11
2019-05-11T15:14:08.154Z,26.46
2019-05-11T15:16:38.330Z,26.76
2019-05-11T15:19:08.030Z,26.93
2019-05-11T15:21:38.735Z,27.00
2019-05-11T15:24:09.070Z,26.71
2019-05-11T15:26:38.085Z,25.85
2019-05-11T15:29:08.148Z,26.32
2019-05-11T15:31:38.061Z,26.65
2019-05-11T15:34:08.523Z,26.61
2019-05-11T15:36:38.759Z,26.54
2019-05-11T15:39:07.899Z,26.40
2019-05-11T15:41:38.584Z,25.72
2019-05-11T15:44:11.367Z,25.92
2019-05-11T15:46:38.733Z,25.06
2019-05-11T15:49:08.859Z,25.17
2019-05-11T15:51:41.084Z,25.31
2019-05-11T15:54:08.096Z,24.75
2019-05-11T15:56:38.528Z,25.70
2019-05-11T15:59:08.686Z,25.65
2019-05-11T16:01:38.316Z,25.66
2019-05-11T16:04:09.126Z,25.55
2019-05-11T16:06:37.600Z,25.53
2019-05-11T16:09:08.449Z,25.44
2019-05-11T16:11:38.788Z,25.24
2019-05-11T16:14:08.729Z,25.90
2019-05-11T16:16:39.109Z,26.69
2019-05-11T16:19:13.890Z,27.24
2019-05-11T16:21:38.729Z,28.07
2019-05-11T16:24:07.926Z,28.22
2019-05-11T16:26:36.822Z,28.76
2019-05-11T16:29:05.228Z,28.89
2019-05-11T16:31:33.731Z,29.20
2019-05-11T16:34:02.865Z,29.41
2019-05-11T16:36:31.290Z,29.73
2019-05-11T16:38:59.842Z,30.22
2019-05-11T16:41:29.137Z,30.98
2019-05-11T16:43:58.560Z,31.39
2019-05-11T16:46:28.336Z,31.94
2019-05-11T16:48:57.868Z,32.71
2019-05-11T16:51:28.415Z,32.85
2019-05-11T16:53:58.774Z,32.89
2019-05-11T16:56:27.121Z,32.73
2019-05-11T16:58:55.559Z,32.87
2019-05-11T17:01:24.010Z,33.05
2019-05-11T17:03:52.632Z,33.06
2019-05-11T17:06:21.247Z,33.04
2019-05-11T17:08:50.024Z,33.38
2019-05-11T17:11:18.806Z,33.19
2019-05-11T17:13:48.344Z,33.20
2019-05-11T17:16:17.918Z,33.24
2019-05-11T17:18:48.309Z,33.61
2019-05-11T17:21:18.360Z,34.10
2019-05-11T17:23:48.803Z,34.68
2019-05-11T17:26:18.980Z,35.31
2019-05-11T17:28:48.919Z,35.70
2019-05-11T17:31:18.827Z,36.52
2019-05-11T17:33:47.858Z,36.74
2019-05-11T17:36:18.509Z,36.62
2019-05-11T17:38:47.879Z,36.87
2019-05-11T17:41:16.697Z,38.91
2019-05-11T17:43:45.129Z,41.96
2019-05-11T17:46:13.663Z,42.13
2019-05-11T17:48:42.348Z,43.79
2019-05-11T17:51:21.376Z,43.61
2019-05-11T17:53:40.940Z,44.98
2019-05-11T17:56:09.630Z,47.66
2019-05-11T17:58:38.119Z,47.91
2019-05-11T18:01:09.331Z,48.13
2019-05-11T18:03:38.591Z,48.79
2019-05-11T18:06:08.446Z,49.20
2019-05-11T18:08:37.094Z,49.63
2019-05-11T18:11:08.207Z,50.49
2019-05-11T18:13:35.917Z,50.07
2019-05-11T18:16:04.339Z,50.68
2019-05-11T18:18:32.921Z,50.54
2019-05-11T18:21:01.383Z,50.55
2019-05-11T18:23:30.082Z,50.33
2019-05-11T18:25:58.990Z,50.12
2019-05-11T18:28:29.186Z,50.03
2019-05-11T18:30:58.355Z,50.30
2019-05-11T18:33:27.683Z,50.37
2019-05-11T18:35:58.565Z,50.26
2019-05-11T18:38:27.617Z,50.48
2019-05-11T18:40:58.038Z,50.82
2019-05-11T18:43:28.065Z,51.43
2019-05-11T18:45:58.122Z,52.41
2019-05-11T18:48:28.878Z,53.26
2019-05-11T18:50:58.902Z,53.36
2019-05-11T18:53:28.930Z,54.20
2019-05-11T18:55:58.979Z,54.89
2019-05-11T18:58:27.988Z,55.67
2019-05-11T19:00:56.727Z,56.04
2019-05-11T19:03:25.289Z,56.52
2019-05-11T19:05:53.792Z,57.28
2019-05-11T19:08:22.212Z,58.72
2019-05-11T19:10:50.756Z,58.21
2019-05-11T19:13:29.472Z,58.63
2019-05-11T19:15:49.336Z,58.64
2019-05-11T19:18:17.961Z,58.98
2019-05-11T19:20:49.335Z,59.29
2019-05-11T19:23:19.014Z,59.51
2019-05-11T19:25:48.016Z,59.87
2019-05-11T19:28:18.511Z,60.46
2019-05-11T19:30:48.829Z,60.61
2019-05-11T19:33:19.002Z,60.59
2019-05-11T19:35:48.111Z,60.77
2019-05-11T19:38:18.833Z,60.86
2019-05-11T19:40:48.396Z,61.58
2019-05-11T19:43:18.561Z,61.03
2019-05-11T19:45:48.631Z,61.36
2019-05-11T19:48:17.230Z,61.45
2019-05-11T19:50:59.850Z,62.03
2019-05-11T19:53:15.805Z,61.86
2019-05-11T19:55:44.462Z,61.91
2019-05-11T19:58:13.149Z,62.14
2019-05-11T20:00:41.594Z,62.19
2019-05-11T20:03:10.112Z,62.29
2019-05-11T20:05:38.775Z,62.32
2019-05-11T20:08:07.924Z,62.54
2019-05-11T20:10:38.370Z,62.91
2019-05-11T20:13:07.941Z,63.08
2019-05-11T20:15:38.168Z,63.31
2019-05-11T20:18:07.936Z,63.18
2019-05-11T20:20:37.660Z,63.23
2019-05-11T20:23:07.828Z,63.63
2019-05-11T20:25:37.989Z,63.96
2019-05-11T20:28:06.612Z,63.84
2019-05-11T20:30:36.056Z,63.78
2019-05-11T20:33:04.881Z,63.78
2019-05-11T20:35:33.312Z,64.29
2019-05-11T20:38:01.729Z,63.97
2019-05-11T20:40:30.209Z,63.91
2019-05-11T20:42:58.883Z,64.08
2019-05-11T20:45:28.577Z,64.05
2019-05-11T20:47:57.477Z,64.34
2019-05-11T20:50:25.991Z,64.32
2019-05-11T20:52:54.431Z,64.88
2019-05-11T20:55:23.389Z,65.15
2019-05-11T20:57:52.173Z,64.80
2019-05-11T21:00:21.437Z,65.05
2019-05-11T21:02:50.201Z,65.22
2019-05-11T21:05:18.770Z,65.17
2019-05-11T21:07:47.213Z,65.37
2019-05-11T21:10:16.564Z,65.45
2019-05-11T21:12:45.013Z,65.63
2019-05-11T21:15:15.094Z,65.73
2019-05-11T21:17:43.531Z,66.17
2019-05-11T21:20:12.759Z,66.20
2019-05-11T21:22:41.183Z,66.42
2019-05-11T21:25:10.847Z,66.56
2019-05-11T21:27:39.274Z,66.84
2019-05-11T21:30:09.726Z,66.86
2019-05-11T21:32:40.137Z,66.75
2019-05-11T21:35:09.475Z,66.92
2019-05-11T21:37:39.087Z,67.10
2019-05-11T21:40:09.022Z,67.16
2019-05-11T21:42:38.918Z,67.64
2019-05-11T21:45:10.016Z,67.27
2019-05-11T21:47:39.626Z,67.32
2019-05-11T21:50:09.731Z,67.27
2019-05-11T21:52:38.940Z,67.28
2019-05-11T21:55:09.771Z,67.52
2019-05-11T21:57:38.380Z,67.68
2019-05-11T22:00:09.158Z,67.94
2019-05-11T22:02:38.561Z,67.83
2019-05-11T22:05:09.664Z,67.99
2019-05-11T22:07:41.605Z,68.13
2019-05-11T22:10:09.458Z,68.17
2019-05-11T22:12:39.015Z,68.23
2019-05-11T22:15:11.609Z,68.45
2019-05-11T22:17:40.359Z,68.77
2019-05-11T22:20:09.722Z,68.59
2019-05-11T22:22:38.895Z,68.75
2019-05-11T22:25:09.325Z,69.33
2019-05-11T22:27:38.866Z,69.01
2019-05-11T22:30:08.642Z,69.16
2019-05-11T22:32:38.298Z,69.80
2019-05-11T22:35:08.249Z,69.62
2019-05-11T22:37:38.616Z,70.08
2019-05-11T22:40:08.449Z,70.02
2019-05-11T22:42:37.016Z,69.96
2019-05-11T22:45:10.315Z,69.99
2019-05-11T22:47:39.568Z,70.22
2019-05-11T22:50:10.035Z,70.11
2019-05-11T22:52:40.308Z,70.56
2019-05-11T22:55:11.753Z,70.81
2019-05-11T22:57:40.384Z,70.44
2019-05-11T23:00:10.911Z,70.70
2019-05-11T23:02:39.501Z,70.63
2019-05-11T23:05:09.015Z,70.60
2019-05-11T23:07:41.201Z,70.81
2019-05-11T23:10:09.256Z,70.70
2019-05-11T23:12:38.588Z,70.65
2019-05-11T23:15:12.418Z,70.83
2019-05-11T23:17:41.126Z,70.63
2019-05-11T23:20:10.980Z,70.50
2019-05-11T23:22:57.011Z,70.55
2019-05-11T23:25:18.673Z,70.60
2019-05-11T23:27:48.585Z,70.79
2019-05-11T23:30:19.767Z,70.70
2019-05-11T23:32:48.762Z,70.94
2019-05-11T23:35:18.882Z,70.76
2019-05-11T23:37:49.489Z,70.81
2019-05-11T23:40:19.754Z,70.92
2019-05-11T23:42:49.217Z,70.99
2019-05-11T23:45:19.034Z,71.17
2019-05-11T23:47:49.014Z,71.28
2019-05-11T23:50:18.840Z,71.17
2019-05-11T23:52:50.278Z,71.44
2019-05-11T23:55:19.245Z,71.56
2019-05-11T23:57:48.566Z,71.89
